createdAt,value
2023-01-04T00:00:23.952Z,1009.49
2023-01-04T00:01:23.969Z,1009.50
2023-01-04T00:02:23.957Z,1009.45
2023-01-04T00:03:24.021Z,1009.44
2023-01-04T00:04:23.885Z,1009.48
2023-01-04T00:05:23.875Z,1009.49
2023-01-04T00:06:23.872Z,1009.49
2023-01-04T00:07:23.880Z,1009.47
2023-01-04T00:08:23.843Z,1009.40
2023-01-04T00:09:23.836Z,1009.38
2023-01-04T00:10:23.816Z,1009.36
2023-01-04T00:11:23.809Z,1009.35
2023-01-04T00:12:23.801Z,1009.35
2023-01-04T00:13:23.804Z,1009.35
2023-01-04T00:14:23.775Z,1009.37
2023-01-04T00:15:23.766Z,1009.32
2023-01-04T00:16:23.847Z,1009.31
2023-01-04T00:17:23.733Z,1009.27
2023-01-04T00:18:23.725Z,1009.21
2023-01-04T00:19:23.740Z,1009.22
2023-01-04T00:20:23.704Z,1009.23
2023-01-04T00:21:23.699Z,1009.20
2023-01-04T00:22:23.684Z,1009.20
2023-01-04T00:23:23.672Z,1009.18
2023-01-04T00:24:23.656Z,1009.19
2023-01-04T00:25:23.669Z,1009.12
2023-01-04T00:26:23.624Z,1009.08
2023-01-04T00:27:23.630Z,1009.08
2023-01-04T00:28:23.605Z,1009.12
2023-01-04T00:29:23.615Z,1009.07
2023-01-04T00:30:23.603Z,1009.07
2023-01-04T00:31:23.665Z,1009.04
2023-01-04T00:32:23.565Z,1009.03
2023-01-04T00:33:23.553Z,1009.06
2023-01-04T00:34:23.535Z,1009.01
2023-01-04T00:35:44.636Z,1009.08
2023-01-04T00:36:24.533Z,1009.00
2023-01-04T00:37:23.514Z,1008.96
2023-01-04T00:38:23.490Z,1008.98
2023-01-04T00:39:23.483Z,1008.93
2023-01-04T00:40:23.467Z,1008.89
2023-01-04T00:41:56.769Z,1008.97
2023-01-04T00:42:24.463Z,1008.91
2023-01-04T00:43:23.437Z,1008.97
2023-01-04T00:44:23.413Z,1008.96
2023-01-04T00:45:23.411Z,1008.93
2023-01-04T00:46:23.404Z,1008.89
2023-01-04T00:47:23.383Z,1008.92
2023-01-04T00:48:23.392Z,1008.88
2023-01-04T00:49:23.361Z,1008.81
2023-01-04T00:50:23.354Z,1008.80
2023-01-04T00:51:23.344Z,1008.79
2023-01-04T00:52:23.322Z,1008.71
2023-01-04T00:53:23.320Z,1008.64
2023-01-04T00:54:23.324Z,1008.64
2023-01-04T00:55:23.293Z,1008.60
2023-01-04T00:56:23.285Z,1008.58
2023-01-04T00:57:23.272Z,1008.60
2023-01-04T00:58:23.265Z,1008.53
2023-01-04T00:59:23.396Z,1008.52
2023-01-04T01:00:23.233Z,1008.52
2023-01-04T01:01:23.342Z,1008.51
2023-01-04T01:02:23.408Z,1008.47
2023-01-04T01:03:23.262Z,1008.52
2023-01-04T01:04:23.270Z,1008.50
2023-01-04T01:05:23.192Z,1008.46
2023-01-04T01:06:23.163Z,1008.48
2023-01-04T01:07:23.151Z,1008.46
2023-01-04T01:08:23.139Z,1008.47
2023-01-04T01:09:23.312Z,1008.41
2023-01-04T01:10:23.131Z,1008.36
2023-01-04T01:11:23.103Z,1008.37
2023-01-04T01:12:23.090Z,1008.38
2023-01-04T01:13:23.083Z,1008.35
2023-01-04T01:14:23.088Z,1008.38
2023-01-04T01:15:23.062Z,1008.35
2023-01-04T01:16:51.982Z,1008.34
2023-01-04T01:17:24.047Z,1008.31
2023-01-04T01:18:23.026Z,1008.33
2023-01-04T01:19:23.016Z,1008.32
2023-01-04T01:20:23.003Z,1008.34
2023-01-04T01:21:23.080Z,1008.36
2023-01-04T01:22:23.018Z,1008.40
2023-01-04T01:23:22.974Z,1008.40
2023-01-04T01:24:22.956Z,1008.38
2023-01-04T01:25:22.943Z,1008.38
2023-01-04T01:26:22.931Z,1008.37
2023-01-04T01:27:22.929Z,1008.35
2023-01-04T01:28:22.921Z,1008.32
2023-01-04T01:29:22.906Z,1008.33
2023-01-04T01:30:22.913Z,1008.36
2023-01-04T01:31:22.945Z,1008.31
2023-01-04T01:32:22.911Z,1008.34
2023-01-04T01:33:22.850Z,1008.31
2023-01-04T01:34:22.855Z,1008.34
2023-01-04T01:35:22.821Z,1008.38
2023-01-04T01:36:22.814Z,1008.32
2023-01-04T01:37:22.800Z,1008.26
2023-01-04T01:38:22.790Z,1008.26
2023-01-04T01:39:22.811Z,1008.23
2023-01-04T01:40:22.790Z,1008.21
2023-01-04T01:41:22.787Z,1008.24
2023-01-04T01:42:22.744Z,1008.26
2023-01-04T01:43:22.732Z,1008.20
2023-01-04T01:44:22.721Z,1008.21
2023-01-04T01:45:23.018Z,1008.28
2023-01-04T01:46:22.737Z,1008.23
2023-01-04T01:47:22.685Z,1008.19
2023-01-04T01:48:22.670Z,1008.17
2023-01-04T01:49:22.659Z,1008.17
2023-01-04T01:50:22.651Z,1008.11
2023-01-04T01:51:22.669Z,1008.10
2023-01-04T01:52:22.625Z,1008.14
2023-01-04T01:53:22.620Z,1008.13
2023-01-04T01:54:22.621Z,1008.12
2023-01-04T01:55:22.591Z,1008.12
2023-01-04T01:56:22.580Z,1008.09
2023-01-04T01:57:22.589Z,1008.09
2023-01-04T01:58:22.558Z,1008.02
2023-01-04T01:59:22.542Z,1008.09
2023-01-04T02:00:22.532Z,1008.07
2023-01-04T02:01:22.591Z,1008.11
2023-01-04T02:02:22.782Z,1008.12
2023-01-04T02:03:22.761Z,1008.06
2023-01-04T02:04:22.484Z,1008.02
2023-01-04T02:05:22.481Z,1008.03
2023-01-04T02:06:22.465Z,1007.98
2023-01-04T02:07:22.467Z,1008.03
2023-01-04T02:08:22.519Z,1008.01
2023-01-04T02:09:22.429Z,1007.97
2023-01-04T02:10:22.409Z,1007.96
2023-01-04T02:11:22.427Z,1007.91
2023-01-04T02:12:22.388Z,1007.92
2023-01-04T02:13:22.382Z,1007.90
2023-01-04T02:14:22.392Z,1007.90
2023-01-04T02:15:22.358Z,1007.88
2023-01-04T02:16:22.402Z,1007.85
2023-01-04T02:17:22.339Z,1007.86
2023-01-04T02:18:22.321Z,1007.87
2023-01-04T02:19:22.309Z,1007.82
2023-01-04T02:20:22.324Z,1007.85
2023-01-04T02:21:22.290Z,1007.82
2023-01-04T02:22:22.374Z,1007.80
2023-01-04T02:23:22.260Z,1007.78
2023-01-04T02:24:22.248Z,1007.74
2023-01-04T02:25:22.239Z,1007.71
2023-01-04T02:26:22.249Z,1007.66
2023-01-04T02:27:22.228Z,1007.61
2023-01-04T02:28:22.228Z,1007.58
2023-01-04T02:29:22.192Z,1007.51
2023-01-04T02:30:22.178Z,1007.52
2023-01-04T02:31:22.233Z,1007.54
2023-01-04T02:32:22.178Z,1007.49
2023-01-04T02:33:22.147Z,1007.53
2023-01-04T02:34:22.142Z,1007.51
2023-01-04T02:35:22.131Z,1007.48
2023-01-04T02:36:22.108Z,1007.46
2023-01-04T02:37:22.096Z,1007.39
2023-01-04T02:38:22.104Z,1007.42
2023-01-04T02:39:22.087Z,1007.39
2023-01-04T02:40:22.081Z,1007.42
2023-01-04T02:41:22.049Z,1007.54
2023-01-04T02:42:22.068Z,1007.51
2023-01-04T02:43:22.048Z,1007.57
2023-01-04T02:44:22.008Z,1007.60
2023-01-04T02:45:22.004Z,1007.57
2023-01-04T02:46:22.055Z,1007.65
2023-01-04T02:47:21.992Z,1007.66
2023-01-04T02:48:21.966Z,1007.53
2023-01-04T02:49:21.991Z,1007.51
2023-01-04T02:50:21.952Z,1007.56
2023-01-04T02:51:21.940Z,1007.50
2023-01-04T02:52:21.918Z,1007.44
2023-01-04T02:53:21.907Z,1007.38
2023-01-04T02:54:21.900Z,1007.45
2023-01-04T02:55:21.922Z,1007.38
2023-01-04T02:56:21.889Z,1007.41
2023-01-04T02:57:21.868Z,1007.36
2023-01-04T02:58:21.847Z,1007.44
2023-01-04T02:59:21.855Z,1007.42
2023-01-04T03:00:21.825Z,1007.43
2023-01-04T03:01:21.977Z,1007.35
2023-01-04T03:02:21.967Z,1007.34
2023-01-04T03:03:21.924Z,1007.33
2023-01-04T03:04:21.779Z,1007.27
2023-01-04T03:05:21.775Z,1007.24
2023-01-04T03:06:21.783Z,1007.24
2023-01-04T03:07:21.747Z,1007.20
2023-01-04T03:08:21.736Z,1007.17
2023-01-04T03:09:21.733Z,1007.16
2023-01-04T03:10:21.704Z,1007.12
2023-01-04T03:11:21.707Z,1007.07
2023-01-04T03:12:21.704Z,1007.05
2023-01-04T03:13:21.685Z,1007.02
2023-01-04T03:14:31.021Z,1007.09
2023-01-04T03:15:22.674Z,1007.04
2023-01-04T03:16:21.736Z,1007.09
2023-01-04T03:17:21.626Z,1007.26
2023-01-04T03:18:21.666Z,1007.24
2023-01-04T03:19:21.609Z,1007.17
2023-01-04T03:20:21.614Z,1007.19
2023-01-04T03:21:21.586Z,1007.19
2023-01-04T03:22:21.566Z,1007.16
2023-01-04T03:23:21.563Z,1007.21
2023-01-04T03:24:21.567Z,1007.18
2023-01-04T03:25:21.535Z,1007.14
2023-01-04T03:26:21.526Z,1007.09
2023-01-04T03:27:21.518Z,1007.03
2023-01-04T03:28:21.505Z,1007.02
2023-01-04T03:29:21.485Z,1006.99
2023-01-04T03:30:21.495Z,1007.00
2023-01-04T03:31:21.501Z,1006.96
2023-01-04T03:32:21.454Z,1006.88
2023-01-04T03:33:21.446Z,1006.91
2023-01-04T03:34:21.426Z,1006.90
2023-01-04T03:35:21.429Z,1006.89
2023-01-04T03:36:21.423Z,1006.86
2023-01-04T03:37:21.398Z,1006.82
2023-01-04T03:38:21.382Z,1006.86
2023-01-04T03:39:21.378Z,1006.84
2023-01-04T03:40:21.370Z,1006.80
2023-01-04T03:41:21.365Z,1006.90
2023-01-04T03:42:21.355Z,1006.86
2023-01-04T03:43:21.334Z,1006.86
2023-01-04T03:44:21.324Z,1006.87
2023-01-04T03:45:21.306Z,1006.83
2023-01-04T03:46:21.373Z,1006.76
2023-01-04T03:47:21.310Z,1006.69
2023-01-04T03:48:21.275Z,1006.77
2023-01-04T03:49:21.265Z,1006.66
2023-01-04T03:50:21.245Z,1006.75
2023-01-04T03:51:21.240Z,1006.59
2023-01-04T03:52:21.234Z,1006.60
2023-01-04T03:53:21.231Z,1006.58
2023-01-04T03:54:21.221Z,1006.60
2023-01-04T03:55:21.190Z,1006.61
2023-01-04T03:56:21.185Z,1006.57
2023-01-04T03:57:21.165Z,1006.54
2023-01-04T03:58:21.176Z,1006.55
2023-01-04T03:59:21.145Z,1006.53
2023-01-04T04:00:21.143Z,1006.57
2023-01-04T04:01:21.233Z,1006.56
2023-01-04T04:02:21.191Z,1006.59
2023-01-04T04:03:21.105Z,1006.54
2023-01-04T04:04:21.165Z,1006.56
2023-01-04T04:05:21.075Z,1006.59
2023-01-04T04:06:21.064Z,1006.51
2023-01-04T04:07:21.052Z,1006.50
2023-01-04T04:08:21.043Z,1006.49
2023-01-04T04:09:21.033Z,1006.49
2023-01-04T04:10:21.035Z,1006.43
2023-01-04T04:11:21.008Z,1006.45
2023-01-04T04:12:21.004Z,1006.41
2023-01-04T04:13:20.983Z,1006.39
2023-01-04T04:14:20.982Z,1006.34
2023-01-04T04:15:20.999Z,1006.35
2023-01-04T04:16:21.009Z,1006.26
2023-01-04T04:17:20.934Z,1006.39
2023-01-04T04:18:20.947Z,1006.33
2023-01-04T04:19:20.914Z,1006.24
2023-01-04T04:20:20.904Z,1006.20
2023-01-04T04:21:20.916Z,1006.16
2023-01-04T04:22:20.884Z,1006.20
2023-01-04T04:23:20.870Z,1006.19
2023-01-04T04:24:20.879Z,1006.18
2023-01-04T04:25:20.846Z,1006.15
2023-01-04T04:26:20.833Z,1006.08
2023-01-04T04:27:20.843Z,1005.99
2023-01-04T04:28:20.812Z,1006.05
2023-01-04T04:29:20.794Z,1005.97
2023-01-04T04:30:20.785Z,1005.97
2023-01-04T04:31:20.787Z,1006.10
2023-01-04T04:32:20.772Z,1006.02
2023-01-04T04:33:20.774Z,1005.93
2023-01-04T04:34:20.746Z,1005.95
2023-01-04T04:35:20.738Z,1006.01
2023-01-04T04:36:20.722Z,1006.00
2023-01-04T04:37:20.703Z,1006.02
2023-01-04T04:38:20.695Z,1006.02
2023-01-04T04:39:20.714Z,1005.95
2023-01-04T04:40:20.676Z,1006.00
2023-01-04T04:41:20.663Z,1006.00
2023-01-04T04:42:20.652Z,1005.98
2023-01-04T04:43:20.635Z,1005.96
2023-01-04T04:44:20.651Z,1005.92
2023-01-04T04:45:20.613Z,1005.93
2023-01-04T04:46:20.711Z,1005.84
2023-01-04T04:47:20.602Z,1005.80
2023-01-04T04:48:20.582Z,1005.75
2023-01-04T04:49:20.570Z,1005.74
2023-01-04T04:50:20.583Z,1005.70
2023-01-04T04:51:20.564Z,1005.64
2023-01-04T04:52:20.541Z,1005.69
2023-01-04T04:53:20.531Z,1005.68
2023-01-04T04:54:20.535Z,1005.76
2023-01-04T04:55:20.503Z,1005.77
2023-01-04T04:56:20.520Z,1005.73
2023-01-04T04:57:20.482Z,1005.78
2023-01-04T04:58:20.474Z,1005.74
2023-01-04T04:59:20.452Z,1005.65
2023-01-04T05:00:20.442Z,1005.72
2023-01-04T05:01:20.614Z,1005.75
2023-01-04T05:02:20.656Z,1005.70
2023-01-04T05:03:20.486Z,1005.71
2023-01-04T05:04:20.401Z,1005.71
2023-01-04T05:05:20.392Z,1005.65
2023-01-04T05:06:20.381Z,1005.73
2023-01-04T05:07:20.362Z,1005.61
2023-01-04T05:08:20.371Z,1005.61
2023-01-04T05:09:20.368Z,1005.61
2023-01-04T05:10:20.340Z,1005.55
2023-01-04T05:11:20.319Z,1005.52
2023-01-04T05:12:20.312Z,1005.57
2023-01-04T05:13:21.121Z,1005.55
2023-01-04T05:14:20.291Z,1005.46
2023-01-04T05:15:20.281Z,1005.49
2023-01-04T05:16:20.320Z,1005.56
2023-01-04T05:17:20.251Z,1005.59
2023-01-04T05:18:20.239Z,1005.59
2023-01-04T05:19:20.242Z,1005.54
2023-01-04T05:20:20.229Z,1005.61
2023-01-04T05:21:20.523Z,1005.49
2023-01-04T05:22:20.202Z,1005.56
2023-01-04T05:23:20.194Z,1005.57
2023-01-04T05:24:20.198Z,1005.62
2023-01-04T05:25:20.163Z,1005.58
2023-01-04T05:26:20.152Z,1005.56
2023-01-04T05:27:20.149Z,1005.59
2023-01-04T05:28:20.141Z,1005.49
2023-01-04T05:29:20.133Z,1005.49
2023-01-04T05:30:20.130Z,1005.47
2023-01-04T05:31:20.127Z,1005.51
2023-01-04T05:32:20.089Z,1005.47
2023-01-04T05:33:20.070Z,1005.48
2023-01-04T05:34:22.304Z,1005.53
2023-01-04T05:35:20.052Z,1005.55
2023-01-04T05:36:20.056Z,1005.50
2023-01-04T05:37:20.030Z,1005.58
2023-01-04T05:38:20.028Z,1005.50
2023-01-04T05:39:19.999Z,1005.44
2023-01-04T05:40:19.990Z,1005.48
2023-01-04T05:41:20.012Z,1005.43
2023-01-04T05:42:19.972Z,1005.43
2023-01-04T05:43:19.990Z,1005.41
2023-01-04T05:44:19.953Z,1005.37
2023-01-04T05:45:19.956Z,1005.40
2023-01-04T05:46:19.980Z,1005.40
2023-01-04T05:47:19.953Z,1005.37
2023-01-04T05:48:19.913Z,1005.42
2023-01-04T05:49:19.893Z,1005.36
2023-01-04T05:50:19.883Z,1005.34
2023-01-04T05:51:19.877Z,1005.35
2023-01-04T05:52:19.887Z,1005.34
2023-01-04T05:53:19.882Z,1005.31
2023-01-04T05:54:21.591Z,1005.34
2023-01-04T05:55:19.833Z,1005.35
2023-01-04T05:56:19.833Z,1005.35
2023-01-04T05:57:19.801Z,1005.33
2023-01-04T05:58:19.811Z,1005.31
2023-01-04T05:59:19.787Z,1005.31
2023-01-04T06:00:19.771Z,1005.27
2023-01-04T06:01:19.793Z,1005.40
2023-01-04T06:02:19.877Z,1005.36
2023-01-04T06:03:19.832Z,1005.29
2023-01-04T06:04:19.739Z,1005.29
2023-01-04T06:05:19.722Z,1005.34
2023-01-04T06:06:19.711Z,1005.34
2023-01-04T06:07:19.690Z,1005.28
2023-01-04T06:08:19.679Z,1005.21
2023-01-04T06:09:19.690Z,1005.21
2023-01-04T06:10:19.665Z,1005.21
2023-01-04T06:11:25.632Z,1005.25
2023-01-04T06:12:20.638Z,1005.22
2023-01-04T06:13:19.620Z,1005.15
2023-01-04T06:14:19.617Z,1005.16
2023-01-04T06:15:19.619Z,1005.05
2023-01-04T06:16:19.617Z,1005.09
2023-01-04T06:17:19.630Z,1005.06
2023-01-04T06:18:19.577Z,1005.04
2023-01-04T06:19:19.560Z,1005.05
2023-01-04T06:20:19.565Z,1005.12
2023-01-04T06:21:19.572Z,1005.22
2023-01-04T06:22:19.528Z,1005.20
2023-01-04T06:23:19.509Z,1005.20
2023-01-04T06:24:19.501Z,1005.27
2023-01-04T06:25:19.479Z,1005.30
2023-01-04T06:26:19.487Z,1005.26
2023-01-04T06:27:19.489Z,1005.17
2023-01-04T06:28:19.460Z,1005.14
2023-01-04T06:29:19.442Z,1005.13
2023-01-04T06:30:19.438Z,1005.11
2023-01-04T06:31:19.463Z,1005.10
2023-01-04T06:32:19.437Z,1005.07
2023-01-04T06:33:19.408Z,1004.99
2023-01-04T06:34:19.934Z,1004.88
2023-01-04T06:35:19.378Z,1004.79
2023-01-04T06:36:20.384Z,1004.80
2023-01-04T06:37:19.362Z,1004.71
2023-01-04T06:38:19.368Z,1004.69
2023-01-04T06:39:19.329Z,1004.60
2023-01-04T06:40:19.319Z,1004.65
2023-01-04T06:41:19.311Z,1004.51
2023-01-04T06:42:19.297Z,1004.50
2023-01-04T06:43:19.288Z,1004.52
2023-01-04T06:44:19.357Z,1004.50
2023-01-04T06:45:19.279Z,1004.48
2023-01-04T06:46:19.295Z,1004.47
2023-01-04T06:47:19.238Z,1004.44
2023-01-04T06:48:19.235Z,1004.51
2023-01-04T06:49:19.217Z,1004.49
2023-01-04T06:50:19.228Z,1004.46
2023-01-04T06:51:19.195Z,1004.51
2023-01-04T06:52:19.195Z,1004.49
2023-01-04T06:53:19.180Z,1004.59
2023-01-04T06:54:19.166Z,1004.55
2023-01-04T06:55:19.152Z,1004.53
2023-01-04T06:56:19.167Z,1004.58
2023-01-04T06:57:19.139Z,1004.62
2023-01-04T06:58:19.127Z,1004.63
2023-01-04T06:59:19.109Z,1004.66
2023-01-04T07:00:19.100Z,1004.68
2023-01-04T07:01:19.156Z,1004.71
2023-01-04T07:02:19.330Z,1004.68
2023-01-04T07:03:19.098Z,1004.60
2023-01-04T07:04:19.140Z,1004.67
2023-01-04T07:05:19.040Z,1004.60
2023-01-04T07:06:19.029Z,1004.56
2023-01-04T07:07:19.022Z,1004.62
2023-01-04T07:08:19.039Z,1004.50
2023-01-04T07:09:18.995Z,1004.48
2023-01-04T07:10:18.979Z,1004.54
2023-01-04T07:11:18.967Z,1004.43
2023-01-04T07:12:18.972Z,1004.48
2023-01-04T07:13:18.956Z,1004.44
2023-01-04T07:14:18.956Z,1004.38
2023-01-04T07:15:37.200Z,1004.39
2023-01-04T07:16:19.975Z,1004.30
2023-01-04T07:17:19.840Z,1004.26
2023-01-04T07:18:18.899Z,1004.33
2023-01-04T07:19:18.883Z,1004.32
2023-01-04T07:20:18.895Z,1004.33
2023-01-04T07:21:18.857Z,1004.33
2023-01-04T07:22:18.847Z,1004.25
2023-01-04T07:23:18.839Z,1004.33
2023-01-04T07:24:18.857Z,1004.30
2023-01-04T07:25:18.808Z,1004.30
2023-01-04T07:26:18.830Z,1004.32
2023-01-04T07:27:18.788Z,1004.26
2023-01-04T07:28:18.775Z,1004.20
2023-01-04T07:29:18.773Z,1004.37
2023-01-04T07:30:18.758Z,1004.27
2023-01-04T07:31:18.800Z,1004.28
2023-01-04T07:32:18.770Z,1004.26
2023-01-04T07:33:18.716Z,1004.11
2023-01-04T07:34:18.723Z,1004.17
2023-01-04T07:35:18.695Z,1004.08
2023-01-04T07:36:18.687Z,1004.16
2023-01-04T07:37:18.675Z,1004.18
2023-01-04T07:38:18.686Z,1004.26
2023-01-04T07:39:18.678Z,1004.27
2023-01-04T07:40:18.648Z,1004.30
2023-01-04T07:41:18.627Z,1004.40
2023-01-04T07:42:18.626Z,1004.28
2023-01-04T07:43:22.761Z,1004.41
2023-01-04T07:44:19.636Z,1004.44
2023-01-04T07:45:18.596Z,1004.37
2023-01-04T07:46:18.642Z,1004.37
2023-01-04T07:47:18.563Z,1004.37
2023-01-04T07:48:18.558Z,1004.30
2023-01-04T07:49:18.803Z,1004.32
2023-01-04T07:50:18.587Z,1004.33
2023-01-04T07:51:18.515Z,1004.39
2023-01-04T07:52:18.505Z,1004.32
2023-01-04T07:53:18.495Z,1004.32
2023-01-04T07:54:18.491Z,1004.25
2023-01-04T07:55:18.474Z,1004.33
2023-01-04T07:56:18.985Z,1004.43
2023-01-04T07:57:18.454Z,1004.39
2023-01-04T07:58:18.455Z,1004.44
2023-01-04T07:59:18.432Z,1004.39
2023-01-04T08:00:18.435Z,1004.46
2023-01-04T08:01:18.516Z,1004.37
2023-01-04T08:02:18.476Z,1004.39
2023-01-04T08:03:18.395Z,1004.38
2023-01-04T08:04:18.419Z,1004.43
2023-01-04T08:05:18.422Z,1004.36
2023-01-04T08:06:18.354Z,1004.44
2023-01-04T08:07:18.366Z,1004.52
2023-01-04T08:08:18.330Z,1004.45
2023-01-04T08:09:18.319Z,1004.50
2023-01-04T08:10:18.304Z,1004.48
2023-01-04T08:11:18.305Z,1004.49
2023-01-04T08:12:18.286Z,1004.43
2023-01-04T08:13:18.293Z,1004.40
2023-01-04T08:14:18.256Z,1004.47
2023-01-04T08:15:18.245Z,1004.40
2023-01-04T08:16:18.294Z,1004.37
2023-01-04T08:17:18.236Z,1004.42
2023-01-04T08:18:20.600Z,1004.32
2023-01-04T08:19:18.230Z,1004.34
2023-01-04T08:20:18.189Z,1004.37
2023-01-04T08:21:18.185Z,1004.27
2023-01-04T08:22:18.171Z,1004.36
2023-01-04T08:23:18.164Z,1004.41
2023-01-04T08:24:18.177Z,1004.35
2023-01-04T08:25:18.168Z,1004.36
2023-01-04T08:26:18.125Z,1004.34
2023-01-04T08:27:18.125Z,1004.27
2023-01-04T08:28:18.106Z,1004.34
2023-01-04T08:29:18.105Z,1004.29
2023-01-04T08:30:18.083Z,1004.35
2023-01-04T08:31:18.152Z,1004.35
2023-01-04T08:32:18.053Z,1004.29
2023-01-04T08:33:18.048Z,1004.32
2023-01-04T08:34:18.033Z,1004.27
2023-01-04T08:35:18.023Z,1004.29
2023-01-04T08:36:22.727Z,1004.22
2023-01-04T08:37:19.031Z,1004.21
2023-01-04T08:38:57.560Z,1004.34
2023-01-04T08:39:18.971Z,1004.34
2023-01-04T08:40:17.963Z,1004.25
2023-01-04T08:41:47.306Z,1004.23
2023-01-04T08:42:26.613Z,1004.34
2023-01-04T08:43:18.944Z,1004.22
2023-01-04T08:44:17.938Z,1004.26
2023-01-04T08:45:17.917Z,1004.30
2023-01-04T08:46:17.952Z,1004.37
2023-01-04T08:47:17.891Z,1004.32
2023-01-04T08:48:22.592Z,1004.33
2023-01-04T08:49:18.862Z,1004.38
2023-01-04T08:50:17.849Z,1004.26
2023-01-04T08:51:17.871Z,1004.25
2023-01-04T08:52:17.841Z,1004.23
2023-01-04T08:53:17.842Z,1004.16
2023-01-04T08:54:17.808Z,1004.19
2023-01-04T08:55:23.020Z,1004.21
2023-01-04T08:56:18.781Z,1004.15
2023-01-04T08:57:17.787Z,1004.11
2023-01-04T08:58:17.775Z,1004.13
2023-01-04T08:59:17.776Z,1004.22
2023-01-04T09:00:17.740Z,1004.16
2023-01-04T09:01:17.938Z,1004.25
2023-01-04T09:02:17.824Z,1004.27
2023-01-04T09:03:17.760Z,1004.21
2023-01-04T09:04:17.761Z,1004.07
2023-01-04T09:05:22.598Z,1004.10
2023-01-04T09:06:18.677Z,1004.23
2023-01-04T09:07:17.659Z,1004.08
2023-01-04T09:08:17.649Z,1004.23
2023-01-04T09:09:17.641Z,1004.20
2023-01-04T09:10:17.621Z,1004.15
2023-01-04T09:11:17.642Z,1004.09
2023-01-04T09:12:17.602Z,1004.12
2023-01-04T09:13:17.601Z,1004.07
2023-01-04T09:14:17.583Z,1004.05
2023-01-04T09:15:17.574Z,1004.01
2023-01-04T09:16:17.648Z,1004.01
2023-01-04T09:17:17.573Z,1003.99
2023-01-04T09:18:30.705Z,1003.99
2023-01-04T09:19:22.084Z,1003.91
2023-01-04T09:20:17.520Z,1003.94
2023-01-04T09:21:17.502Z,1003.95
2023-01-04T09:22:17.567Z,1003.94
2023-01-04T09:23:17.509Z,1003.89
2023-01-04T09:24:17.481Z,1003.90
2023-01-04T09:25:17.467Z,1003.92
2023-01-04T09:26:17.459Z,1003.89
2023-01-04T09:27:17.460Z,1003.94
2023-01-04T09:28:17.467Z,1004.01
2023-01-04T09:29:17.431Z,1004.10
2023-01-04T09:30:17.391Z,1003.99
2023-01-04T09:31:17.440Z,1004.11
2023-01-04T09:32:17.378Z,1004.05
2023-01-04T09:33:17.384Z,1004.00
2023-01-04T09:34:18.050Z,1004.05
2023-01-04T09:35:17.353Z,1004.02
2023-01-04T09:36:17.391Z,1003.98
2023-01-04T09:37:17.324Z,1003.97
2023-01-04T09:38:17.309Z,1004.00
2023-01-04T09:39:22.622Z,1003.94
2023-01-04T09:40:18.309Z,1003.97
2023-01-04T09:41:17.278Z,1003.97
2023-01-04T09:42:17.262Z,1004.00
2023-01-04T09:43:21.529Z,1003.93
2023-01-04T09:44:18.232Z,1003.92
2023-01-04T09:45:26.106Z,1003.88
2023-01-04T09:46:17.260Z,1003.90
2023-01-04T09:47:17.205Z,1003.94
2023-01-04T09:48:23.165Z,1003.93
2023-01-04T09:49:18.186Z,1003.89
2023-01-04T09:50:17.173Z,1004.03
2023-01-04T09:51:17.180Z,1003.94
2023-01-04T09:52:17.286Z,1003.88
2023-01-04T09:53:17.142Z,1003.91
2023-01-04T09:54:17.150Z,1003.88
2023-01-04T09:55:37.481Z,1003.87
2023-01-04T09:56:18.153Z,1003.83
2023-01-04T09:57:17.092Z,1003.86
2023-01-04T09:58:17.077Z,1003.91
2023-01-04T09:59:17.066Z,1003.86
2023-01-04T10:00:17.056Z,1003.89
2023-01-04T10:01:17.236Z,1003.90
2023-01-04T10:02:17.235Z,1003.99
2023-01-04T10:03:17.137Z,1003.92
2023-01-04T10:04:17.046Z,1003.92
2023-01-04T10:05:17.006Z,1003.92
2023-01-04T10:06:16.984Z,1003.95
2023-01-04T10:07:17.023Z,1003.94
2023-01-04T10:08:16.982Z,1003.96
2023-01-04T10:09:16.964Z,1003.88
2023-01-04T10:10:16.942Z,1003.85
2023-01-04T10:11:16.937Z,1003.85
2023-01-04T10:12:16.912Z,1003.85
2023-01-04T10:13:16.915Z,1003.85
2023-01-04T10:14:16.913Z,1003.82
2023-01-04T10:15:16.891Z,1003.86
2023-01-04T10:16:17.639Z,1003.89
2023-01-04T10:17:28.227Z,1003.90
2023-01-04T10:20:59.889Z,1003.92
2023-01-04T10:21:32.330Z,1003.87
2023-01-04T10:22:17.803Z,1003.86
2023-01-04T10:23:16.840Z,1003.87
2023-01-04T10:24:16.802Z,1003.86
2023-01-04T10:25:16.817Z,1003.76
2023-01-04T10:26:16.771Z,1003.80
2023-01-04T10:27:16.742Z,1003.75
2023-01-04T10:28:16.763Z,1003.68
2023-01-04T10:29:16.721Z,1003.64
2023-01-04T10:30:16.731Z,1003.61
2023-01-04T10:31:39.898Z,1003.59
2023-01-04T10:32:17.741Z,1003.54
2023-01-04T10:33:16.672Z,1003.52
2023-01-04T10:34:18.961Z,1003.51
2023-01-04T10:35:16.652Z,1003.46
2023-01-04T10:36:16.661Z,1003.45
2023-01-04T10:37:16.631Z,1003.47
2023-01-04T10:38:16.625Z,1003.38
2023-01-04T10:39:16.618Z,1003.37
2023-01-04T10:40:16.601Z,1003.34
2023-01-04T10:41:16.591Z,1003.40
2023-01-04T10:42:16.591Z,1003.32
2023-01-04T10:43:16.586Z,1003.34
2023-01-04T10:44:16.556Z,1003.29
2023-01-04T10:45:16.552Z,1003.29
2023-01-04T10:46:16.632Z,1003.33
2023-01-04T10:47:16.828Z,1003.35
2023-01-04T10:48:16.540Z,1003.33
2023-01-04T10:49:16.491Z,1003.36
2023-01-04T10:50:16.550Z,1003.32
2023-01-04T10:51:16.470Z,1003.33
2023-01-04T10:52:16.462Z,1003.30
2023-01-04T10:53:16.461Z,1003.21
2023-01-04T10:54:16.451Z,1003.30
2023-01-04T10:55:16.429Z,1003.25
2023-01-04T10:56:25.407Z,1003.25
2023-01-04T10:57:17.402Z,1003.25
2023-01-04T10:58:16.397Z,1003.22
2023-01-04T10:59:16.414Z,1003.21
2023-01-04T11:00:16.396Z,1003.19
2023-01-04T11:01:16.524Z,1003.19
2023-01-04T11:02:16.448Z,1003.20
2023-01-04T11:03:16.402Z,1003.19
2023-01-04T11:04:16.323Z,1003.23
2023-01-04T11:05:16.354Z,1003.17
2023-01-04T11:06:16.313Z,1003.19
2023-01-04T11:07:16.309Z,1003.11
2023-01-04T11:08:16.291Z,1003.07
2023-01-04T11:09:19.714Z,1003.16
2023-01-04T11:10:17.270Z,1003.10
2023-01-04T11:11:16.247Z,1003.08
2023-01-04T11:12:16.241Z,1002.99
2023-01-04T11:13:16.221Z,1003.12
2023-01-04T11:14:16.211Z,1002.98
2023-01-04T11:15:16.235Z,1003.03
2023-01-04T11:16:16.252Z,1003.03
2023-01-04T11:17:16.175Z,1002.95
2023-01-04T11:18:16.160Z,1003.02
2023-01-04T11:19:16.151Z,1002.97
2023-01-04T11:20:16.232Z,1002.95
2023-01-04T11:21:16.134Z,1002.91
2023-01-04T11:22:16.135Z,1002.97
2023-01-04T11:23:16.195Z,1002.99
2023-01-04T11:24:31.457Z,1002.96
2023-01-04T11:25:36.534Z,1003.07
2023-01-04T11:26:17.076Z,1003.05
2023-01-04T11:27:16.059Z,1002.96
2023-01-04T11:28:16.097Z,1003.02
2023-01-04T11:29:16.033Z,1002.99
2023-01-04T11:30:16.022Z,1002.96
2023-01-04T11:31:16.041Z,1003.00
2023-01-04T11:32:16.025Z,1003.07
2023-01-04T11:33:16.014Z,1002.82
2023-01-04T11:34:15.987Z,1002.92
2023-01-04T11:35:15.981Z,1002.83
2023-01-04T11:36:15.951Z,1002.78
2023-01-04T11:37:15.960Z,1002.87
2023-01-04T11:38:15.948Z,1002.85
2023-01-04T11:39:15.941Z,1002.73
2023-01-04T11:40:15.910Z,1002.79
2023-01-04T11:41:15.901Z,1002.76
2023-01-04T11:42:15.881Z,1002.69
2023-01-04T11:43:15.883Z,1002.69
2023-01-04T11:44:15.871Z,1002.70
2023-01-04T11:45:15.889Z,1002.60
2023-01-04T11:46:15.891Z,1002.65
2023-01-04T11:47:15.832Z,1002.51
2023-01-04T11:48:15.820Z,1002.58
2023-01-04T11:49:15.845Z,1002.59
2023-01-04T11:50:15.790Z,1002.62
2023-01-04T11:51:17.332Z,1002.55
2023-01-04T11:52:15.770Z,1002.59
2023-01-04T11:53:15.761Z,1002.56
2023-01-04T11:54:15.757Z,1002.50
2023-01-04T11:55:15.744Z,1002.41
2023-01-04T11:56:15.750Z,1002.39
2023-01-04T11:57:15.722Z,1002.45
2023-01-04T11:58:15.703Z,1002.38
2023-01-04T11:59:22.897Z,1002.48
2023-01-04T12:00:16.686Z,1002.47
2023-01-04T12:01:15.712Z,1002.47
2023-01-04T12:02:28.877Z,1002.45
2023-01-04T12:03:16.651Z,1002.44
2023-01-04T12:04:15.631Z,1002.46
2023-01-04T12:05:15.632Z,1002.34
2023-01-04T12:06:15.612Z,1002.34
2023-01-04T12:07:15.629Z,1002.40